PUA1502 SUMU-SUDU
Flight info
| Callsign | PUA1502 |
|---|---|
| Flight time | 0h 28m |
| Altitude | 18000 |
| Route | MONSA W19 DUR |
| Aircraft | A320/M-SDE3FGHIRWY/LB1 |
Departure
| Time | 2026-05-08 16:08 |
|---|---|
| Airport | Carrasco General Cesáreo L. Berisso International Airport (SUMU) |
Arrival
| Time | 2026-05-08 16:37 |
|---|---|
| Airport | Santa Bernardina International Airport (SUDU) |
| Time | Latitude | Longitude | Altitude | Speed | Heading |
|---|---|---|---|---|---|
| 2026-05-08 15:39 | -34.83698 | -56.01929 | 82 ft | 0 kts | 141° |
| 2026-05-08 15:46 | -34.83697 | -56.01929 | 82 ft | 0 kts | 141° |
| 2026-05-08 15:48 | -34.83697 | -56.01930 | 82 ft | 0 kts | 141° |
| 2026-05-08 15:57 | -34.83690 | -56.01937 | 84 ft | 4 kts | 140° |
| 2026-05-08 15:58 | -34.83669 | -56.01959 | 86 ft | 4 kts | 134° |
| 2026-05-08 15:58 | -34.83652 | -56.01984 | 85 ft | 4 kts | 118° |
| 2026-05-08 15:58 | -34.83646 | -56.02012 | 88 ft | 4 kts | 63° |
| 2026-05-08 15:58 | -34.83650 | -56.02021 | 88 ft | 0 kts | 53° |
| 2026-05-08 16:02 | -34.83647 | -56.02015 | 88 ft | 2 kts | 53° |
| 2026-05-08 16:02 | -34.83640 | -56.02004 | 82 ft | 1 kts | 54° |
| 2026-05-08 16:02 | -34.83627 | -56.01981 | 86 ft | 3 kts | 54° |
| 2026-05-08 16:03 | -34.83609 | -56.01952 | 83 ft | 3 kts | 54° |
| 2026-05-08 16:03 | -34.83599 | -56.01934 | 84 ft | 5 kts | 54° |
| 2026-05-08 16:03 | -34.83568 | -56.01881 | 84 ft | 7 kts | 54° |
| 2026-05-08 16:03 | -34.83536 | -56.01832 | 84 ft | 9 kts | 49° |
| 2026-05-08 16:04 | -34.83504 | -56.01784 | 83 ft | 6 kts | 50° |
| 2026-05-08 16:04 | -34.83449 | -56.01767 | 83 ft | 11 kts | 342° |
| 2026-05-08 16:04 | -34.83390 | -56.01819 | 85 ft | 10 kts | 322° |
| 2026-05-08 16:04 | -34.83318 | -56.01851 | 82 ft | 16 kts | 10° |
| 2026-05-08 16:05 | -34.83237 | -56.01761 | 86 ft | 15 kts | 53° |
| 2026-05-08 16:05 | -34.83176 | -56.01659 | 83 ft | 15 kts | 53° |
| 2026-05-08 16:05 | -34.83111 | -56.01554 | 85 ft | 16 kts | 54° |
| 2026-05-08 16:05 | -34.83035 | -56.01428 | 84 ft | 19 kts | 55° |
| 2026-05-08 16:06 | -34.82968 | -56.01312 | 85 ft | 14 kts | 55° |
| 2026-05-08 16:06 | -34.82905 | -56.01211 | 85 ft | 20 kts | 52° |
| 2026-05-08 16:06 | -34.82819 | -56.01139 | 83 ft | 5 kts | 358° |
| 2026-05-08 16:06 | -34.82818 | -56.01139 | 83 ft | 0 kts | 358° |
| 2026-05-08 16:07 | -34.82809 | -56.01140 | 84 ft | 5 kts | 355° |
| 2026-05-08 16:07 | -34.82742 | -56.01159 | 85 ft | 14 kts | 335° |
| 2026-05-08 16:07 | -34.82735 | -56.01267 | 86 ft | 20 kts | 239° |
| 2026-05-08 16:08 | -34.82933 | -56.01597 | 85 ft | 81 kts | 233° |
| 2026-05-08 16:08 | -34.83374 | -56.02330 | 85 ft | 134 kts | 233° |
| 2026-05-08 16:08 | -34.83986 | -56.03351 | 373 ft | 154 kts | 238° |
| 2026-05-08 16:08 | -34.84631 | -56.04392 | 1100 ft | 153 kts | 239° |
| 2026-05-08 16:09 | -34.85270 | -56.05457 | 1743 ft | 162 kts | 243° |
| 2026-05-08 16:09 | -34.85509 | -56.06353 | 1951 ft | 172 kts | 272° |
| 2026-05-08 16:09 | -34.84626 | -56.08054 | 2473 ft | 208 kts | 325° |
| 2026-05-08 16:09 | -34.83145 | -56.08611 | 2937 ft | 235 kts | 341° |
| 2026-05-08 16:10 | -34.81495 | -56.08967 | 3489 ft | 245 kts | 344° |
| 2026-05-08 16:10 | -34.79791 | -56.09267 | 4142 ft | 250 kts | 345° |
| 2026-05-08 16:10 | -34.78058 | -56.09563 | 4776 ft | 254 kts | 346° |
| 2026-05-08 16:10 | -34.76295 | -56.09876 | 5422 ft | 257 kts | 345° |
| 2026-05-08 16:11 | -34.74522 | -56.10205 | 6088 ft | 260 kts | 345° |
| 2026-05-08 16:11 | -34.72725 | -56.10550 | 6732 ft | 263 kts | 345° |
| 2026-05-08 16:11 | -34.70911 | -56.10905 | 7381 ft | 266 kts | 345° |
| 2026-05-08 16:11 | -34.69074 | -56.11271 | 8078 ft | 269 kts | 345° |
| 2026-05-08 16:12 | -34.67216 | -56.11645 | 8747 ft | 272 kts | 346° |
| 2026-05-08 16:12 | -34.65336 | -56.12027 | 9449 ft | 276 kts | 346° |
| 2026-05-08 16:12 | -34.63425 | -56.12416 | 10094 ft | 283 kts | 346° |
| 2026-05-08 16:12 | -34.61479 | -56.12813 | 10789 ft | 290 kts | 346° |
| 2026-05-08 16:13 | -34.59465 | -56.13222 | 11525 ft | 296 kts | 346° |
| 2026-05-08 16:13 | -34.57416 | -56.13634 | 12283 ft | 302 kts | 347° |
| 2026-05-08 16:13 | -34.55325 | -56.14053 | 13052 ft | 306 kts | 347° |
| 2026-05-08 16:13 | -34.53207 | -56.14476 | 13797 ft | 310 kts | 347° |
| 2026-05-08 16:14 | -34.51067 | -56.14902 | 14515 ft | 314 kts | 347° |
| 2026-05-08 16:14 | -34.48905 | -56.15331 | 15227 ft | 316 kts | 347° |
| 2026-05-08 16:14 | -34.46728 | -56.15764 | 15955 ft | 318 kts | 347° |
| 2026-05-08 16:14 | -34.44543 | -56.16203 | 16704 ft | 319 kts | 346° |
| 2026-05-08 16:15 | -34.42349 | -56.16645 | 17421 ft | 322 kts | 346° |
| 2026-05-08 16:15 | -34.40083 | -56.17106 | 17658 ft | 339 kts | 346° |
| 2026-05-08 16:15 | -34.37683 | -56.17595 | 17699 ft | 359 kts | 346° |
| 2026-05-08 16:15 | -34.35191 | -56.18104 | 17707 ft | 365 kts | 345° |
| 2026-05-08 16:16 | -34.32730 | -56.18839 | 17711 ft | 365 kts | 341° |
| 2026-05-08 16:16 | -34.30276 | -56.19619 | 17711 ft | 365 kts | 341° |
| 2026-05-08 16:16 | -34.27853 | -56.20391 | 17723 ft | 365 kts | 341° |
| 2026-05-08 16:16 | -34.25475 | -56.21149 | 17718 ft | 365 kts | 341° |
| 2026-05-08 16:17 | -34.23020 | -56.21933 | 17725 ft | 365 kts | 341° |
| 2026-05-08 16:17 | -34.21369 | -56.22460 | 17715 ft | 359 kts | 341° |
| 2026-05-08 16:17 | -34.18275 | -56.23439 | 17723 ft | 337 kts | 340° |
| 2026-05-08 16:17 | -34.16058 | -56.24139 | 17716 ft | 321 kts | 340° |
| 2026-05-08 16:18 | -34.13957 | -56.24805 | 17722 ft | 305 kts | 340° |
| 2026-05-08 16:18 | -34.11941 | -56.25444 | 17723 ft | 295 kts | 340° |
| 2026-05-08 16:18 | -34.09970 | -56.26073 | 17715 ft | 292 kts | 340° |
| 2026-05-08 16:18 | -34.08010 | -56.26699 | 17713 ft | 291 kts | 340° |
| 2026-05-08 16:19 | -34.06060 | -56.27323 | 17717 ft | 291 kts | 340° |
| 2026-05-08 16:19 | -34.04096 | -56.27951 | 17344 ft | 296 kts | 340° |
| 2026-05-08 16:19 | -34.02120 | -56.28577 | 17086 ft | 286 kts | 340° |
| 2026-05-08 16:19 | -34.00226 | -56.29173 | 16680 ft | 277 kts | 340° |
| 2026-05-08 16:20 | -33.98410 | -56.29748 | 16271 ft | 270 kts | 340° |
| 2026-05-08 16:20 | -33.97190 | -56.30136 | 15997 ft | 266 kts | 340° |
| 2026-05-08 16:20 | -33.94831 | -56.30884 | 15466 ft | 267 kts | 340° |
| 2026-05-08 16:20 | -33.93023 | -56.31462 | 15059 ft | 271 kts | 340° |
| 2026-05-08 16:21 | -33.91193 | -56.32049 | 14673 ft | 274 kts | 340° |
| 2026-05-08 16:21 | -33.89339 | -56.32641 | 14288 ft | 277 kts | 341° |
| 2026-05-08 16:21 | -33.88073 | -56.33045 | 14020 ft | 279 kts | 341° |
| 2026-05-08 16:21 | -33.86211 | -56.33637 | 13652 ft | 282 kts | 341° |
| 2026-05-08 16:22 | -33.83651 | -56.34402 | 13095 ft | 286 kts | 346° |
| 2026-05-08 16:22 | -33.82343 | -56.34657 | 12812 ft | 288 kts | 347° |
| 2026-05-08 16:22 | -33.80359 | -56.35045 | 12391 ft | 290 kts | 346° |
| 2026-05-08 16:22 | -33.78366 | -56.35439 | 11974 ft | 291 kts | 346° |
| 2026-05-08 16:23 | -33.76365 | -56.35838 | 11562 ft | 292 kts | 346° |
| 2026-05-08 16:23 | -33.74358 | -56.36239 | 11157 ft | 293 kts | 346° |
| 2026-05-08 16:23 | -33.72348 | -56.36639 | 10757 ft | 293 kts | 346° |
| 2026-05-08 16:23 | -33.70337 | -56.37042 | 10370 ft | 293 kts | 346° |
| 2026-05-08 16:24 | -33.68325 | -56.37447 | 9984 ft | 293 kts | 346° |
| 2026-05-08 16:24 | -33.66313 | -56.37847 | 9599 ft | 293 kts | 346° |
| 2026-05-08 16:24 | -33.64298 | -56.38245 | 9174 ft | 293 kts | 346° |
| 2026-05-08 16:24 | -33.62542 | -56.38584 | 8801 ft | 293 kts | 349° |
| 2026-05-08 16:25 | -33.60507 | -56.38806 | 8377 ft | 293 kts | 351° |
| 2026-05-08 16:25 | -33.58505 | -56.38965 | 7986 ft | 292 kts | 352° |
| 2026-05-08 16:25 | -33.56473 | -56.39101 | 7728 ft | 285 kts | 353° |
| 2026-05-08 16:25 | -33.54537 | -56.39220 | 7478 ft | 279 kts | 352° |
| 2026-05-08 16:26 | -33.52618 | -56.39340 | 7228 ft | 273 kts | 352° |
| 2026-05-08 16:26 | -33.50746 | -56.39462 | 6980 ft | 266 kts | 352° |
| 2026-05-08 16:26 | -33.48913 | -56.39587 | 6733 ft | 261 kts | 352° |
| 2026-05-08 16:26 | -33.47121 | -56.39711 | 6486 ft | 255 kts | 352° |
| 2026-05-08 16:27 | -33.45366 | -56.39834 | 6244 ft | 251 kts | 351° |
| 2026-05-08 16:27 | -33.43627 | -56.39957 | 5997 ft | 249 kts | 351° |
| 2026-05-08 16:27 | -33.41904 | -56.40078 | 5733 ft | 248 kts | 351° |
| 2026-05-08 16:27 | -33.40186 | -56.40196 | 5484 ft | 246 kts | 351° |
| 2026-05-08 16:28 | -33.38478 | -56.40313 | 5262 ft | 245 kts | 351° |
| 2026-05-08 16:28 | -33.36772 | -56.40363 | 5030 ft | 248 kts | 3° |
| 2026-05-08 16:28 | -33.35112 | -56.39741 | 4808 ft | 253 kts | 19° |
| 2026-05-08 16:28 | -33.33495 | -56.38882 | 4584 ft | 254 kts | 21° |
| 2026-05-08 16:29 | -33.31890 | -56.38001 | 4353 ft | 253 kts | 21° |
| 2026-05-08 16:29 | -33.30314 | -56.37129 | 4123 ft | 252 kts | 21° |
| 2026-05-08 16:29 | -33.28733 | -56.36248 | 3891 ft | 250 kts | 21° |
| 2026-05-08 16:29 | -33.27155 | -56.35369 | 3665 ft | 250 kts | 21° |
| 2026-05-08 16:30 | -33.25587 | -56.34487 | 3441 ft | 248 kts | 21° |
| 2026-05-08 16:30 | -33.24028 | -56.33612 | 3252 ft | 247 kts | 21° |
| 2026-05-08 16:30 | -33.22466 | -56.32747 | 3135 ft | 248 kts | 21° |
| 2026-05-08 16:30 | -33.20849 | -56.32168 | 3029 ft | 239 kts | 358° |
| 2026-05-08 16:31 | -33.19252 | -56.32417 | 3014 ft | 229 kts | 333° |
| 2026-05-08 16:31 | -33.17931 | -56.33394 | 3015 ft | 220 kts | 309° |
| 2026-05-08 16:31 | -33.17088 | -56.34851 | 3016 ft | 213 kts | 288° |
| 2026-05-08 16:31 | -33.16788 | -56.36556 | 3017 ft | 206 kts | 266° |
| 2026-05-08 16:32 | -33.17025 | -56.38156 | 3008 ft | 189 kts | 248° |
| 2026-05-08 16:32 | -33.17663 | -56.39460 | 3011 ft | 177 kts | 231° |
| 2026-05-08 16:32 | -33.18551 | -56.40447 | 3004 ft | 172 kts | 223° |
| 2026-05-08 16:32 | -33.19467 | -56.41344 | 3013 ft | 170 kts | 218° |
| 2026-05-08 16:33 | -33.20497 | -56.42046 | 3011 ft | 172 kts | 207° |
| 2026-05-08 16:33 | -33.21603 | -56.42606 | 3012 ft | 173 kts | 206° |
| 2026-05-08 16:33 | -33.22710 | -56.43168 | 2903 ft | 170 kts | 206° |
| 2026-05-08 16:33 | -33.23810 | -56.43730 | 2543 ft | 173 kts | 207° |
| 2026-05-08 16:34 | -33.24911 | -56.44291 | 2209 ft | 172 kts | 207° |
| 2026-05-08 16:34 | -33.25995 | -56.44845 | 1881 ft | 171 kts | 207° |
| 2026-05-08 16:34 | -33.27026 | -56.45370 | 1803 ft | 151 kts | 207° |
| 2026-05-08 16:34 | -33.27967 | -56.45850 | 1800 ft | 144 kts | 207° |
| 2026-05-08 16:35 | -33.28859 | -56.46306 | 1662 ft | 135 kts | 207° |
| 2026-05-08 16:35 | -33.29711 | -56.46744 | 1483 ft | 132 kts | 207° |
| 2026-05-08 16:35 | -33.30554 | -56.47178 | 1270 ft | 132 kts | 207° |
| 2026-05-08 16:35 | -33.31399 | -56.47610 | 1061 ft | 133 kts | 207° |
| 2026-05-08 16:36 | -33.32227 | -56.48049 | 926 ft | 130 kts | 211° |
| 2026-05-08 16:36 | -33.33057 | -56.48471 | 762 ft | 129 kts | 209° |
| 2026-05-08 16:36 | -33.33883 | -56.48883 | 588 ft | 128 kts | 210° |
| 2026-05-08 16:36 | -33.34703 | -56.49309 | 414 ft | 130 kts | 208° |
| 2026-05-08 16:37 | -33.35519 | -56.49731 | 293 ft | 121 kts | 208° |
| 2026-05-08 16:37 | -33.36166 | -56.50070 | 286 ft | 67 kts | 203° |
| 2026-05-08 16:37 | -33.36445 | -56.50206 | 286 ft | 41 kts | 202° |
| 2026-05-08 16:37 | -33.36694 | -56.50345 | 281 ft | 27 kts | 204° |
| 2026-05-08 16:38 | -33.36869 | -56.50424 | 278 ft | 20 kts | 211° |
| 2026-05-08 16:38 | -33.36842 | -56.50503 | 279 ft | 16 kts | 355° |
| 2026-05-08 16:38 | -33.36726 | -56.50501 | 279 ft | 16 kts | 358° |
| 2026-05-08 16:38 | -33.36616 | -56.50510 | 280 ft | 16 kts | 12° |
| 2026-05-08 16:39 | -33.36515 | -56.50463 | 280 ft | 15 kts | 25° |
| 2026-05-08 16:39 | -33.36426 | -56.50416 | 281 ft | 14 kts | 22° |
| 2026-05-08 16:39 | -33.36307 | -56.50359 | 285 ft | 22 kts | 21° |
| 2026-05-08 16:39 | -33.36151 | -56.50274 | 286 ft | 23 kts | 25° |
| 2026-05-08 16:40 | -33.36012 | -56.50203 | 288 ft | 21 kts | 22° |
| 2026-05-08 16:40 | -33.35914 | -56.50202 | 289 ft | 8 kts | 268° |
| 2026-05-08 16:40 | -33.35926 | -56.50271 | 287 ft | 17 kts | 263° |
| 2026-05-08 16:40 | -33.35927 | -56.50450 | 289 ft | 22 kts | 269° |
| 2026-05-08 16:41 | -33.35940 | -56.50633 | 291 ft | 22 kts | 266° |
| 2026-05-08 16:41 | -33.35942 | -56.50804 | 291 ft | 18 kts | 270° |
| 2026-05-08 16:41 | -33.35851 | -56.50870 | 295 ft | 18 kts | 340° |
| 2026-05-08 16:42 | -33.35780 | -56.51015 | 286 ft | 10 kts | 303° |
| 2026-05-08 16:42 | -33.35753 | -56.51035 | 284 ft | 1 kts | 340° |
| 2026-05-08 16:52 | -33.35754 | -56.51035 | 284 ft | 0 kts | 340° |
| 2026-05-08 17:12 | -33.35755 | -56.51035 | 284 ft | 0 kts | 340° |
| 2026-05-08 17:17 | -33.35755 | -56.51034 | 284 ft | 0 kts | 340° |
| 2026-05-08 17:31 | -33.35756 | -56.51034 | 284 ft | 0 kts | 340° |